sensor_id;sensor_type;location;lat;lon;timestamp;P1;durP1;ratioP1;P2;durP2;ratioP2
22983;SDS011;11658;48.908;9.140;2022-10-17T03:02:38;3.43;;;2.50;;
22983;SDS011;11658;48.908;9.140;2022-10-17T03:05:04;3.60;;;2.30;;
22983;SDS011;11658;48.908;9.140;2022-10-17T03:07:30;3.40;;;2.33;;
22983;SDS011;11658;48.908;9.140;2022-10-17T03:09:55;5.83;;;2.63;;
22983;SDS011;11658;48.908;9.140;2022-10-17T03:12:21;3.20;;;2.10;;
22983;SDS011;11658;48.908;9.140;2022-10-17T03:14:46;4.37;;;2.30;;
22983;SDS011;11658;48.908;9.140;2022-10-17T03:17:12;2.73;;;2.33;;
22983;SDS011;11658;48.908;9.140;2022-10-17T03:19:37;4.70;;;2.43;;
22983;SDS011;11658;48.908;9.140;2022-10-17T03:22:03;4.17;;;2.43;;
22983;SDS011;11658;48.908;9.140;2022-10-17T03:24:29;4.63;;;2.40;;
22983;SDS011;11658;48.908;9.140;2022-10-17T03:26:54;3.30;;;2.40;;
22983;SDS011;11658;48.908;9.140;2022-10-17T03:29:20;2.13;;;1.93;;
22983;SDS011;11658;48.908;9.140;2022-10-17T03:31:46;4.43;;;2.50;;
22983;SDS011;11658;48.908;9.140;2022-10-17T03:34:11;3.30;;;2.93;;
22983;SDS011;11658;48.908;9.140;2022-10-17T03:36:37;4.93;;;2.90;;
22983;SDS011;11658;48.908;9.140;2022-10-17T03:39:02;5.93;;;2.63;;
22983;SDS011;11658;48.908;9.140;2022-10-17T03:41:28;4.87;;;2.90;;
22983;SDS011;11658;48.908;9.140;2022-10-17T03:43:53;5.00;;;3.00;;
22983;SDS011;11658;48.908;9.140;2022-10-17T03:46:19;5.33;;;2.70;;
22983;SDS011;11658;48.908;9.140;2022-10-17T03:48:45;3.20;;;2.90;;
22983;SDS011;11658;48.908;9.140;2022-10-17T03:51:10;5.40;;;3.03;;
22983;SDS011;11658;48.908;9.140;2022-10-17T03:53:36;7.67;;;2.83;;
22983;SDS011;11658;48.908;9.140;2022-10-17T03:58:54;6.10;;;3.13;;
22983;SDS011;11658;48.908;9.140;2022-10-17T04:01:20;5.83;;;2.87;;
22983;SDS011;11658;48.908;9.140;2022-10-17T04:03:53;6.40;;;2.97;;
22983;SDS011;11658;48.908;9.140;2022-10-17T04:06:20;4.03;;;3.30;;
22983;SDS011;11658;48.908;9.140;2022-10-17T04:08:46;6.10;;;3.40;;
22983;SDS011;11658;48.908;9.140;2022-10-17T04:11:13;4.23;;;3.10;;
22983;SDS011;11658;48.908;9.140;2022-10-17T04:13:43;3.27;;;2.70;;
22983;SDS011;11658;48.908;9.140;2022-10-17T04:16:11;6.97;;;3.10;;
22983;SDS011;11658;48.908;9.140;2022-10-17T04:18:38;4.47;;;2.90;;
22983;SDS011;11658;48.908;9.140;2022-10-17T04:21:04;5.13;;;2.90;;
22983;SDS011;11658;48.908;9.140;2022-10-17T04:23:31;5.17;;;2.80;;
22983;SDS011;11658;48.908;9.140;2022-10-17T04:25:57;3.80;;;2.53;;
22983;SDS011;11658;48.908;9.140;2022-10-17T04:28:24;3.67;;;2.53;;
22983;SDS011;11658;48.908;9.140;2022-10-17T04:30:58;5.57;;;2.87;;
22983;SDS011;11658;48.908;9.140;2022-10-17T04:33:25;4.17;;;2.70;;
22983;SDS011;11658;48.908;9.140;2022-10-17T04:35:55;5.33;;;2.70;;
22983;SDS011;11658;48.908;9.140;2022-10-17T04:38:21;6.00;;;2.70;;
22983;SDS011;11658;48.908;9.140;2022-10-17T04:40:46;4.53;;;2.60;;
22983;SDS011;11658;48.908;9.140;2022-10-17T04:43:12;8.03;;;2.53;;
22983;SDS011;11658;48.908;9.140;2022-10-17T04:45:37;2.80;;;2.43;;
22983;SDS011;11658;48.908;9.140;2022-10-17T04:48:03;2.33;;;2.10;;
22983;SDS011;11658;48.908;9.140;2022-10-17T04:50:28;5.00;;;2.90;;
22983;SDS011;11658;48.908;9.140;2022-10-17T04:52:54;6.10;;;2.70;;
22983;SDS011;11658;48.908;9.140;2022-10-17T04:55:19;3.83;;;2.40;;
22983;SDS011;11658;48.908;9.140;2022-10-17T04:57:45;3.80;;;2.53;;
22983;SDS011;11658;48.908;9.140;2022-10-17T05:00:11;3.77;;;2.70;;
22983;SDS011;11658;48.908;9.140;2022-10-17T05:02:37;2.77;;;2.47;;
22983;SDS011;11658;48.908;9.140;2022-10-17T05:05:02;5.00;;;2.80;;
22983;SDS011;11658;48.908;9.140;2022-10-17T05:07:28;4.13;;;2.33;;
22983;SDS011;11658;48.908;9.140;2022-10-17T05:09:54;3.53;;;2.70;;
22983;SDS011;11658;48.908;9.140;2022-10-17T05:12:19;3.40;;;2.80;;
22983;SDS011;11658;48.908;9.140;2022-10-17T05:14:45;4.63;;;3.20;;
22983;SDS011;11658;48.908;9.140;2022-10-17T05:17:10;5.30;;;3.00;;
22983;SDS011;11658;48.908;9.140;2022-10-17T05:19:36;3.27;;;2.90;;
22983;SDS011;11658;48.908;9.140;2022-10-17T05:22:02;4.43;;;2.87;;
22983;SDS011;11658;48.908;9.140;2022-10-17T05:24:27;4.13;;;2.67;;
22983;SDS011;11658;48.908;9.140;2022-10-17T05:26:53;3.47;;;2.90;;
22983;SDS011;11658;48.908;9.140;2022-10-17T05:29:18;4.43;;;2.53;;
22983;SDS011;11658;48.908;9.140;2022-10-17T05:31:44;5.97;;;2.70;;
22983;SDS011;11658;48.908;9.140;2022-10-17T05:34:09;5.33;;;2.70;;
22983;SDS011;11658;48.908;9.140;2022-10-17T05:36:35;5.97;;;2.57;;
22983;SDS011;11658;48.908;9.140;2022-10-17T05:39:00;5.30;;;2.60;;
22983;SDS011;11658;48.908;9.140;2022-10-17T05:41:26;2.97;;;2.67;;
22983;SDS011;11658;48.908;9.140;2022-10-17T05:43:52;3.80;;;3.23;;
22983;SDS011;11658;48.908;9.140;2022-10-17T05:46:17;4.67;;;2.70;;
22983;SDS011;11658;48.908;9.140;2022-10-17T05:48:43;4.77;;;2.73;;
22983;SDS011;11658;48.908;9.140;2022-10-17T05:51:09;5.40;;;2.80;;
22983;SDS011;11658;48.908;9.140;2022-10-17T05:53:36;3.17;;;2.87;;
22983;SDS011;11658;48.908;9.140;2022-10-17T05:56:03;4.20;;;3.17;;
22983;SDS011;11658;48.908;9.140;2022-10-17T05:58:30;5.17;;;2.73;;
22983;SDS011;11658;48.908;9.140;2022-10-17T06:00:59;4.70;;;2.90;;
22983;SDS011;11658;48.908;9.140;2022-10-17T06:03:26;4.30;;;2.93;;
22983;SDS011;11658;48.908;9.140;2022-10-17T06:05:52;5.23;;;2.97;;
22983;SDS011;11658;48.908;9.140;2022-10-17T06:08:18;5.33;;;3.20;;
22983;SDS011;11658;48.908;9.140;2022-10-17T06:10:48;4.57;;;3.20;;
22983;SDS011;11658;48.908;9.140;2022-10-17T06:13:14;5.03;;;3.20;;
22983;SDS011;11658;48.908;9.140;2022-10-17T06:15:41;6.80;;;3.57;;
22983;SDS011;11658;48.908;9.140;2022-10-17T06:18:07;12.40;;;3.10;;
22983;SDS011;11658;48.908;9.140;2022-10-17T06:20:32;4.00;;;3.37;;
22983;SDS011;11658;48.908;9.140;2022-10-17T06:22:58;7.63;;;3.43;;
22983;SDS011;11658;48.908;9.140;2022-10-17T06:25:23;5.13;;;3.17;;
22983;SDS011;11658;48.908;9.140;2022-10-17T06:27:49;6.13;;;3.43;;
22983;SDS011;11658;48.908;9.140;2022-10-17T06:30:14;4.47;;;3.00;;
22983;SDS011;11658;48.908;9.140;2022-10-17T06:32:40;6.53;;;2.90;;
22983;SDS011;11658;48.908;9.140;2022-10-17T06:35:06;5.43;;;3.37;;
22983;SDS011;11658;48.908;9.140;2022-10-17T06:37:32;8.07;;;3.63;;
22983;SDS011;11658;48.908;9.140;2022-10-17T06:39:58;5.43;;;3.10;;
22983;SDS011;11658;48.908;9.140;2022-10-17T06:42:24;8.87;;;3.50;;
22983;SDS011;11658;48.908;9.140;2022-10-17T06:44:49;4.50;;;2.80;;
22983;SDS011;11658;48.908;9.140;2022-10-17T06:47:15;2.93;;;2.63;;
22983;SDS011;11658;48.908;9.140;2022-10-17T06:49:40;5.03;;;3.00;;
22983;SDS011;11658;48.908;9.140;2022-10-17T06:52:06;4.40;;;3.03;;
22983;SDS011;11658;48.908;9.140;2022-10-17T06:54:32;5.20;;;3.40;;
22983;SDS011;11658;48.908;9.140;2022-10-17T06:56:57;7.37;;;3.73;;
22983;SDS011;11658;48.908;9.140;2022-10-17T06:59:23;6.47;;;3.13;;
22983;SDS011;11658;48.908;9.140;2022-10-17T07:01:48;5.93;;;3.13;;
22983;SDS011;11658;48.908;9.140;2022-10-17T07:04:14;4.73;;;3.37;;
22983;SDS011;11658;48.908;9.140;2022-10-17T07:06:39;6.83;;;3.20;;
22983;SDS011;11658;48.908;9.140;2022-10-17T07:09:05;7.43;;;3.37;;
22983;SDS011;11658;48.908;9.140;2022-10-17T07:11:31;4.90;;;3.20;;
22983;SDS011;11658;48.908;9.140;2022-10-17T07:13:59;5.80;;;3.17;;
22983;SDS011;11658;48.908;9.140;2022-10-17T07:16:25;5.00;;;3.20;;
22983;SDS011;11658;48.908;9.140;2022-10-17T07:18:51;7.13;;;3.67;;
22983;SDS011;11658;48.908;9.140;2022-10-17T07:21:18;9.37;;;3.30;;
22983;SDS011;11658;48.908;9.140;2022-10-17T07:23:43;6.33;;;3.50;;
22983;SDS011;11658;48.908;9.140;2022-10-17T07:26:10;3.57;;;2.70;;
22983;SDS011;11658;48.908;9.140;2022-10-17T07:28:41;7.27;;;3.63;;
22983;SDS011;11658;48.908;9.140;2022-10-17T07:31:09;4.03;;;3.13;;
22983;SDS011;11658;48.908;9.140;2022-10-17T07:33:39;4.57;;;3.23;;
22983;SDS011;11658;48.908;9.140;2022-10-17T07:36:06;6.30;;;3.03;;
22983;SDS011;11658;48.908;9.140;2022-10-17T07:38:32;4.07;;;2.90;;
22983;SDS011;11658;48.908;9.140;2022-10-17T07:41:02;4.97;;;3.10;;
22983;SDS011;11658;48.908;9.140;2022-10-17T07:43:29;4.50;;;2.50;;
22983;SDS011;11658;48.908;9.140;2022-10-17T07:45:55;3.60;;;3.00;;
22983;SDS011;11658;48.908;9.140;2022-10-17T07:48:21;3.70;;;2.63;;
22983;SDS011;11658;48.908;9.140;2022-10-17T07:50:48;5.43;;;2.90;;
22983;SDS011;11658;48.908;9.140;2022-10-17T07:53:14;4.17;;;2.80;;
22983;SDS011;11658;48.908;9.140;2022-10-17T07:55:40;3.67;;;2.50;;
22983;SDS011;11658;48.908;9.140;2022-10-17T07:58:07;6.37;;;2.77;;
22983;SDS011;11658;48.908;9.140;2022-10-17T08:00:33;5.60;;;3.10;;
22983;SDS011;11658;48.908;9.140;2022-10-17T08:02:59;5.63;;;3.07;;
22983;SDS011;11658;48.908;9.140;2022-10-17T08:05:25;4.17;;;2.70;;
22983;SDS011;11658;48.908;9.140;2022-10-17T08:07:50;3.93;;;2.80;;
22983;SDS011;11658;48.908;9.140;2022-10-17T08:10:16;5.43;;;2.70;;
22983;SDS011;11658;48.908;9.140;2022-10-17T08:12:42;3.80;;;2.70;;
22983;SDS011;11658;48.908;9.140;2022-10-17T08:15:08;5.63;;;2.67;;
22983;SDS011;11658;48.908;9.140;2022-10-17T08:17:34;5.77;;;2.70;;
22983;SDS011;11658;48.908;9.140;2022-10-17T08:20:01;3.67;;;2.80;;
22983;SDS011;11658;48.908;9.140;2022-10-17T08:22:29;6.37;;;3.07;;
22983;SDS011;11658;48.908;9.140;2022-10-17T08:24:54;4.43;;;2.97;;
22983;SDS011;11658;48.908;9.140;2022-10-17T08:27:20;6.53;;;3.10;;
22983;SDS011;11658;48.908;9.140;2022-10-17T08:29:48;4.97;;;2.87;;
22983;SDS011;11658;48.908;9.140;2022-10-17T08:32:18;4.97;;;2.90;;
22983;SDS011;11658;48.908;9.140;2022-10-17T08:34:49;4.30;;;3.30;;
22983;SDS011;11658;48.908;9.140;2022-10-17T08:37:15;5.47;;;2.93;;
22983;SDS011;11658;48.908;9.140;2022-10-17T08:39:41;6.77;;;2.70;;
22983;SDS011;11658;48.908;9.140;2022-10-17T08:47:26;4.13;;;2.60;;
22983;SDS011;11658;48.908;9.140;2022-10-17T08:49:59;4.83;;;2.33;;
22983;SDS011;11658;48.908;9.140;2022-10-17T08:52:31;9.37;;;2.70;;
22983;SDS011;11658;48.908;9.140;2022-10-17T08:54:59;2.90;;;2.30;;
22983;SDS011;11658;48.908;9.140;2022-10-17T08:57:25;4.80;;;2.40;;
22983;SDS011;11658;48.908;9.140;2022-10-17T08:59:52;5.90;;;2.40;;
22983;SDS011;11658;48.908;9.140;2022-10-17T09:18:38;7.47;;;2.50;;
22983;SDS011;11658;48.908;9.140;2022-10-17T09:24:00;3.43;;;2.40;;
22983;SDS011;11658;48.908;9.140;2022-10-17T09:26:29;6.47;;;2.70;;
22983;SDS011;11658;48.908;9.140;2022-10-17T09:28:56;5.07;;;2.60;;
22983;SDS011;11658;48.908;9.140;2022-10-17T09:31:25;5.47;;;2.43;;
22983;SDS011;11658;48.908;9.140;2022-10-17T09:33:55;5.60;;;2.70;;
22983;SDS011;11658;48.908;9.140;2022-10-17T09:36:34;5.17;;;2.53;;
22983;SDS011;11658;48.908;9.140;2022-10-17T09:39:04;6.40;;;2.50;;
22983;SDS011;11658;48.908;9.140;2022-10-17T09:41:48;5.47;;;2.50;;
22983;SDS011;11658;48.908;9.140;2022-10-17T09:49:30;4.37;;;2.10;;
22983;SDS011;11658;48.908;9.140;2022-10-17T09:51:58;6.90;;;2.37;;
22983;SDS011;11658;48.908;9.140;2022-10-17T09:54:28;4.50;;;2.20;;
22983;SDS011;11658;48.908;9.140;2022-10-17T09:57:04;8.60;;;2.38;;
22983;SDS011;11658;48.908;9.140;2022-10-17T09:59:40;2.78;;;2.00;;
22983;SDS011;11658;48.908;9.140;2022-10-17T10:02:12;3.93;;;2.10;;
22983;SDS011;11658;48.908;9.140;2022-10-17T10:07:29;7.40;;;2.00;;
22983;SDS011;11658;48.908;9.140;2022-10-17T10:09:57;4.22;;;2.05;;
22983;SDS011;11658;48.908;9.140;2022-10-17T10:14:51;4.78;;;1.80;;
22983;SDS011;11658;48.908;9.140;2022-10-17T10:17:25;3.22;;;1.95;;
22983;SDS011;11658;48.908;9.140;2022-10-17T10:19:57;5.30;;;1.83;;
22983;SDS011;11658;48.908;9.140;2022-10-17T10:22:23;7.45;;;2.28;;
22983;SDS011;11658;48.908;9.140;2022-10-17T10:27:41;6.40;;;2.25;;
22983;SDS011;11658;48.908;9.140;2022-10-17T10:30:18;4.75;;;2.13;;
22983;SDS011;11658;48.908;9.140;2022-10-17T10:32:54;2.20;;;1.90;;
22983;SDS011;11658;48.908;9.140;2022-10-17T10:35:23;4.68;;;2.17;;
22983;SDS011;11658;48.908;9.140;2022-10-17T10:37:53;6.13;;;2.25;;
22983;SDS011;11658;48.908;9.140;2022-10-17T10:40:37;4.40;;;1.92;;
22983;SDS011;11658;48.908;9.140;2022-10-17T10:43:17;6.95;;;2.40;;
22983;SDS011;11658;48.908;9.140;2022-10-17T10:45:56;5.47;;;2.17;;
22983;SDS011;11658;48.908;9.140;2022-10-17T10:48:48;3.70;;;1.98;;
22983;SDS011;11658;48.908;9.140;2022-10-17T10:51:15;6.95;;;2.28;;
22983;SDS011;11658;48.908;9.140;2022-10-17T10:56:39;4.18;;;1.80;;
22983;SDS011;11658;48.908;9.140;2022-10-17T11:01:50;6.00;;;2.17;;
22983;SDS011;11658;48.908;9.140;2022-10-17T11:04:18;5.03;;;2.45;;
22983;SDS011;11658;48.908;9.140;2022-10-17T11:07:07;6.45;;;2.47;;
22983;SDS011;11658;48.908;9.140;2022-10-17T11:09:45;3.65;;;1.92;;
22983;SDS011;11658;48.908;9.140;2022-10-17T11:12:17;6.97;;;2.28;;
22983;SDS011;11658;48.908;9.140;2022-10-17T11:15:04;4.85;;;2.25;;
22983;SDS011;11658;48.908;9.140;2022-10-17T11:17:51;4.13;;;2.30;;
22983;SDS011;11658;48.908;9.140;2022-10-17T11:20:27;5.15;;;2.00;;
22983;SDS011;11658;48.908;9.140;2022-10-17T11:23:03;3.50;;;1.98;;
22983;SDS011;11658;48.908;9.140;2022-10-17T11:25:46;3.00;;;1.75;;
22983;SDS011;11658;48.908;9.140;2022-10-17T11:28:14;2.75;;;1.92;;
22983;SDS011;11658;48.908;9.140;2022-10-17T11:31:01;3.17;;;1.83;;
22983;SDS011;11658;48.908;9.140;2022-10-17T11:33:36;4.50;;;1.95;;
22983;SDS011;11658;48.908;9.140;2022-10-17T11:36:06;7.35;;;2.10;;
22983;SDS011;11658;48.908;9.140;2022-10-17T11:38:50;3.47;;;1.92;;
22983;SDS011;11658;48.908;9.140;2022-10-17T11:46:59;2.28;;;1.73;;
22983;SDS011;11658;48.908;9.140;2022-10-17T11:49:35;6.80;;;1.63;;
22983;SDS011;11658;48.908;9.140;2022-10-17T11:54:50;5.68;;;1.80;;
22983;SDS011;11658;48.908;9.140;2022-10-17T12:10:54;5.72;;;1.60;;
22983;SDS011;11658;48.908;9.140;2022-10-17T12:15:57;3.17;;;1.67;;
22983;SDS011;11658;48.908;9.140;2022-10-17T12:18:42;5.63;;;1.60;;
22983;SDS011;11658;48.908;9.140;2022-10-17T12:21:08;2.38;;;1.60;;
22983;SDS011;11658;48.908;9.140;2022-10-17T12:23:34;4.95;;;1.73;;
22983;SDS011;11658;48.908;9.140;2022-10-17T12:26:03;3.53;;;1.88;;
22983;SDS011;11658;48.908;9.140;2022-10-17T12:31:03;4.65;;;1.60;;
22983;SDS011;11658;48.908;9.140;2022-10-17T12:54:50;4.70;;;1.50;;
22983;SDS011;11658;48.908;9.140;2022-10-17T12:59:53;4.85;;;1.60;;
22983;SDS011;11658;48.908;9.140;2022-10-17T13:02:20;6.60;;;1.80;;
22983;SDS011;11658;48.908;9.140;2022-10-17T13:04:49;4.10;;;1.60;;
22983;SDS011;11658;48.908;9.140;2022-10-17T13:07:23;2.33;;;1.58;;
22983;SDS011;11658;48.908;9.140;2022-10-17T13:09:49;2.00;;;1.70;;
22983;SDS011;11658;48.908;9.140;2022-10-17T13:12:22;4.63;;;1.70;;
22983;SDS011;11658;48.908;9.140;2022-10-17T13:14:51;5.13;;;1.77;;
22983;SDS011;11658;48.908;9.140;2022-10-17T13:17:20;4.30;;;1.60;;
22983;SDS011;11658;48.908;9.140;2022-10-17T13:19:46;4.35;;;1.70;;
22983;SDS011;11658;48.908;9.140;2022-10-17T13:22:15;3.25;;;1.88;;
22983;SDS011;11658;48.908;9.140;2022-10-17T13:24:46;3.72;;;1.70;;
22983;SDS011;11658;48.908;9.140;2022-10-17T13:27:27;3.28;;;1.60;;
22983;SDS011;11658;48.908;9.140;2022-10-17T13:29:57;2.65;;;1.70;;
22983;SDS011;11658;48.908;9.140;2022-10-17T13:32:24;4.30;;;1.75;;
22983;SDS011;11658;48.908;9.140;2022-10-17T13:35:08;6.22;;;1.80;;
22983;SDS011;11658;48.908;9.140;2022-10-17T13:37:39;4.85;;;1.60;;
22983;SDS011;11658;48.908;9.140;2022-10-17T13:40:14;3.28;;;1.45;;
22983;SDS011;11658;48.908;9.140;2022-10-17T13:42:45;2.80;;;1.50;;
22983;SDS011;11658;48.908;9.140;2022-10-17T13:47:57;3.03;;;1.67;;
22983;SDS011;11658;48.908;9.140;2022-10-17T13:50:36;7.97;;;1.83;;
22983;SDS011;11658;48.908;9.140;2022-10-17T13:58:16;3.67;;;1.60;;
22983;SDS011;11658;48.908;9.140;2022-10-17T14:00:43;3.72;;;1.65;;
22983;SDS011;11658;48.908;9.140;2022-10-17T14:03:09;3.50;;;1.95;;
22983;SDS011;11658;48.908;9.140;2022-10-17T14:05:35;4.63;;;1.75;;
22983;SDS011;11658;48.908;9.140;2022-10-17T14:08:36;4.07;;;1.67;;
22983;SDS011;11658;48.908;9.140;2022-10-17T14:11:12;3.88;;;1.70;;
22983;SDS011;11658;48.908;9.140;2022-10-17T14:13:41;4.25;;;1.80;;
22983;SDS011;11658;48.908;9.140;2022-10-17T14:16:08;3.22;;;1.80;;
22983;SDS011;11658;48.908;9.140;2022-10-17T14:18:35;3.63;;;1.85;;
22983;SDS011;11658;48.908;9.140;2022-10-17T14:21:02;2.28;;;1.77;;
22983;SDS011;11658;48.908;9.140;2022-10-17T14:23:38;4.47;;;1.50;;
22983;SDS011;11658;48.908;9.140;2022-10-17T14:26:16;4.05;;;1.73;;
22983;SDS011;11658;48.908;9.140;2022-10-17T14:28:46;3.72;;;1.48;;
22983;SDS011;11658;48.908;9.140;2022-10-17T14:33:43;4.28;;;1.50;;
22983;SDS011;11658;48.908;9.140;2022-10-17T14:36:10;3.65;;;1.80;;
22983;SDS011;11658;48.908;9.140;2022-10-17T14:38:36;3.88;;;1.50;;
22983;SDS011;11658;48.908;9.140;2022-10-17T14:41:13;3.05;;;1.30;;
22983;SDS011;11658;48.908;9.140;2022-10-17T14:43:42;3.20;;;1.63;;
22983;SDS011;11658;48.908;9.140;2022-10-17T14:46:14;3.55;;;1.80;;
22983;SDS011;11658;48.908;9.140;2022-10-17T14:48:40;2.85;;;1.58;;
22983;SDS011;11658;48.908;9.140;2022-10-17T14:51:14;3.45;;;1.65;;
22983;SDS011;11658;48.908;9.140;2022-10-17T14:54:02;1.77;;;1.40;;
22983;SDS011;11658;48.908;9.140;2022-10-17T14:56:47;3.72;;;1.75;;
22983;SDS011;11658;48.908;9.140;2022-10-17T14:59:15;3.17;;;1.63;;
22983;SDS011;11658;48.908;9.140;2022-10-17T15:01:46;7.97;;;1.63;;
22983;SDS011;11658;48.908;9.140;2022-10-17T15:04:15;5.35;;;1.50;;
22983;SDS011;11658;48.908;9.140;2022-10-17T15:06:42;3.95;;;1.80;;
22983;SDS011;11658;48.908;9.140;2022-10-17T15:09:09;3.60;;;1.85;;
22983;SDS011;11658;48.908;9.140;2022-10-17T15:11:35;3.55;;;1.95;;
22983;SDS011;11658;48.908;9.140;2022-10-17T15:14:02;4.03;;;1.80;;
22983;SDS011;11658;48.908;9.140;2022-10-17T15:16:31;2.53;;;1.40;;
22983;SDS011;11658;48.908;9.140;2022-10-17T15:18:58;3.35;;;1.70;;
22983;SDS011;11658;48.908;9.140;2022-10-17T15:21:25;4.05;;;1.55;;
22983;SDS011;11658;48.908;9.140;2022-10-17T15:23:52;4.60;;;1.58;;
22983;SDS011;11658;48.908;9.140;2022-10-17T15:26:19;4.22;;;1.63;;
22983;SDS011;11658;48.908;9.140;2022-10-17T15:28:48;5.22;;;1.83;;
22983;SDS011;11658;48.908;9.140;2022-10-17T15:31:15;2.88;;;1.60;;
22983;SDS011;11658;48.908;9.140;2022-10-17T15:33:45;4.30;;;1.77;;
22983;SDS011;11658;48.908;9.140;2022-10-17T15:38:43;2.65;;;1.52;;
22983;SDS011;11658;48.908;9.140;2022-10-17T15:41:09;3.83;;;1.65;;
22983;SDS011;11658;48.908;9.140;2022-10-17T15:43:35;4.43;;;1.70;;
22983;SDS011;11658;48.908;9.140;2022-10-17T15:46:01;4.13;;;1.85;;
22983;SDS011;11658;48.908;9.140;2022-10-17T15:48:27;4.25;;;1.88;;
22983;SDS011;11658;48.908;9.140;2022-10-17T15:50:54;4.88;;;1.90;;
22983;SDS011;11658;48.908;9.140;2022-10-17T15:53:20;4.40;;;1.70;;
22983;SDS011;11658;48.908;9.140;2022-10-17T15:55:47;2.92;;;1.80;;
22983;SDS011;11658;48.908;9.140;2022-10-17T15:58:15;3.08;;;1.75;;
22983;SDS011;11658;48.908;9.140;2022-10-17T16:00:42;4.03;;;1.80;;
22983;SDS011;11658;48.908;9.140;2022-10-17T16:03:08;2.63;;;1.80;;
22983;SDS011;11658;48.908;9.140;2022-10-17T16:05:34;3.17;;;1.70;;
22983;SDS011;11658;48.908;9.140;2022-10-17T16:08:00;3.33;;;1.65;;
22983;SDS011;11658;48.908;9.140;2022-10-17T16:10:26;6.00;;;1.95;;
22983;SDS011;11658;48.908;9.140;2022-10-17T16:12:52;4.53;;;1.52;;
22983;SDS011;11658;48.908;9.140;2022-10-17T16:15:19;2.85;;;1.77;;
22983;SDS011;11658;48.908;9.140;2022-10-17T16:17:47;3.25;;;2.33;;
22983;SDS011;11658;48.908;9.140;2022-10-17T16:20:13;3.03;;;1.80;;
22983;SDS011;11658;48.908;9.140;2022-10-17T16:22:39;3.17;;;1.83;;
22983;SDS011;11658;48.908;9.140;2022-10-17T16:25:19;4.70;;;1.88;;
22983;SDS011;11658;48.908;9.140;2022-10-17T16:27:47;1.77;;;1.60;;
22983;SDS011;11658;48.908;9.140;2022-10-17T16:30:15;6.22;;;2.08;;
22983;SDS011;11658;48.908;9.140;2022-10-17T16:32:41;4.97;;;3.40;;
22983;SDS011;11658;48.908;9.140;2022-10-17T16:35:07;4.83;;;2.20;;
22983;SDS011;11658;48.908;9.140;2022-10-17T16:37:33;2.53;;;2.25;;
22983;SDS011;11658;48.908;9.140;2022-10-17T16:40:00;2.47;;;1.90;;
22983;SDS011;11658;48.908;9.140;2022-10-17T16:42:25;2.90;;;1.97;;
22983;SDS011;11658;48.908;9.140;2022-10-17T16:44:51;2.33;;;2.00;;
22983;SDS011;11658;48.908;9.140;2022-10-17T16:47:17;4.00;;;1.97;;
22983;SDS011;11658;48.908;9.140;2022-10-17T16:49:43;2.70;;;2.00;;
22983;SDS011;11658;48.908;9.140;2022-10-17T16:52:09;5.23;;;2.37;;
22983;SDS011;11658;48.908;9.140;2022-10-17T16:54:35;5.93;;;2.30;;
22983;SDS011;11658;48.908;9.140;2022-10-17T16:57:00;3.57;;;1.90;;
22983;SDS011;11658;48.908;9.140;2022-10-17T16:59:27;8.13;;;2.67;;
22983;SDS011;11658;48.908;9.140;2022-10-17T17:01:53;4.67;;;2.20;;
22983;SDS011;11658;48.908;9.140;2022-10-17T17:04:19;2.50;;;2.00;;
22983;SDS011;11658;48.908;9.140;2022-10-17T17:06:45;2.57;;;1.90;;
22983;SDS011;11658;48.908;9.140;2022-10-17T17:09:10;3.07;;;2.07;;
22983;SDS011;11658;48.908;9.140;2022-10-17T17:11:36;2.13;;;1.80;;
22983;SDS011;11658;48.908;9.140;2022-10-17T17:14:02;7.50;;;6.07;;
22983;SDS011;11658;48.908;9.140;2022-10-17T17:16:29;4.70;;;3.27;;
22983;SDS011;11658;48.908;9.140;2022-10-17T17:19:00;4.53;;;2.40;;
22983;SDS011;11658;48.908;9.140;2022-10-17T17:21:29;5.27;;;2.70;;
22983;SDS011;11658;48.908;9.140;2022-10-17T17:23:56;4.43;;;2.50;;
22983;SDS011;11658;48.908;9.140;2022-10-17T17:26:23;5.93;;;2.73;;
22983;SDS011;11658;48.908;9.140;2022-10-17T17:28:51;3.17;;;2.00;;
22983;SDS011;11658;48.908;9.140;2022-10-17T17:31:21;4.17;;;2.50;;
22983;SDS011;11658;48.908;9.140;2022-10-17T17:33:48;4.03;;;2.40;;
22983;SDS011;11658;48.908;9.140;2022-10-17T17:36:16;3.50;;;2.60;;
22983;SDS011;11658;48.908;9.140;2022-10-17T17:38:47;4.30;;;2.50;;
22983;SDS011;11658;48.908;9.140;2022-10-17T17:41:14;8.00;;;2.60;;
22983;SDS011;11658;48.908;9.140;2022-10-17T17:43:41;4.53;;;2.40;;
22983;SDS011;11658;48.908;9.140;2022-10-17T17:46:07;4.07;;;2.30;;
22983;SDS011;11658;48.908;9.140;2022-10-17T17:48:37;3.70;;;2.20;;
22983;SDS011;11658;48.908;9.140;2022-10-17T17:51:03;3.07;;;2.50;;
22983;SDS011;11658;48.908;9.140;2022-10-17T17:53:30;2.93;;;2.27;;
22983;SDS011;11658;48.908;9.140;2022-10-17T17:56:00;6.10;;;2.50;;
22983;SDS011;11658;48.908;9.140;2022-10-17T17:58:30;3.80;;;2.37;;
22983;SDS011;11658;48.908;9.140;2022-10-17T18:00:56;2.70;;;2.50;;
22983;SDS011;11658;48.908;9.140;2022-10-17T18:03:21;2.40;;;2.10;;
22983;SDS011;11658;48.908;9.140;2022-10-17T18:05:47;3.83;;;2.53;;
22983;SDS011;11658;48.908;9.140;2022-10-17T18:08:13;3.23;;;2.30;;
22983;SDS011;11658;48.908;9.140;2022-10-17T18:10:38;3.23;;;2.40;;
22983;SDS011;11658;48.908;9.140;2022-10-17T18:13:04;4.27;;;2.70;;
22983;SDS011;11658;48.908;9.140;2022-10-17T18:15:29;3.53;;;3.23;;
22983;SDS011;11658;48.908;9.140;2022-10-17T18:17:55;7.40;;;5.43;;
22983;SDS011;11658;48.908;9.140;2022-10-17T18:20:20;6.07;;;4.30;;
22983;SDS011;11658;48.908;9.140;2022-10-17T18:22:46;6.33;;;3.30;;
22983;SDS011;11658;48.908;9.140;2022-10-17T18:25:11;3.90;;;2.70;;
22983;SDS011;11658;48.908;9.140;2022-10-17T18:27:37;3.27;;;2.53;;
22983;SDS011;11658;48.908;9.140;2022-10-17T18:30:03;3.10;;;2.50;;
22983;SDS011;11658;48.908;9.140;2022-10-17T18:32:30;5.03;;;3.37;;
22983;SDS011;11658;48.908;9.140;2022-10-17T18:34:56;5.20;;;3.67;;
22983;SDS011;11658;48.908;9.140;2022-10-17T18:37:21;9.67;;;4.13;;
22983;SDS011;11658;48.908;9.140;2022-10-17T18:39:47;5.50;;;3.50;;
22983;SDS011;11658;48.908;9.140;2022-10-17T18:42:16;4.30;;;3.50;;
22983;SDS011;11658;48.908;9.140;2022-10-17T18:44:41;5.37;;;3.67;;
22983;SDS011;11658;48.908;9.140;2022-10-17T18:47:07;7.87;;;3.10;;
22983;SDS011;11658;48.908;9.140;2022-10-17T18:49:34;4.20;;;2.97;;
22983;SDS011;11658;48.908;9.140;2022-10-17T18:52:00;3.30;;;2.77;;
22983;SDS011;11658;48.908;9.140;2022-10-17T18:54:26;7.10;;;3.40;;
22983;SDS011;11658;48.908;9.140;2022-10-17T18:56:53;3.07;;;2.77;;
22983;SDS011;11658;48.908;9.140;2022-10-17T18:59:19;3.00;;;2.73;;
22983;SDS011;11658;48.908;9.140;2022-10-17T19:01:45;5.27;;;3.40;;
22983;SDS011;11658;48.908;9.140;2022-10-17T19:04:12;5.50;;;3.30;;
22983;SDS011;11658;48.908;9.140;2022-10-17T19:06:38;3.57;;;3.23;;
22983;SDS011;11658;48.908;9.140;2022-10-17T19:09:05;5.90;;;3.17;;
22983;SDS011;11658;48.908;9.140;2022-10-17T19:11:33;8.17;;;3.20;;
22983;SDS011;11658;48.908;9.140;2022-10-17T19:14:01;3.57;;;3.20;;
22983;SDS011;11658;48.908;9.140;2022-10-17T19:16:33;5.30;;;3.20;;
22983;SDS011;11658;48.908;9.140;2022-10-17T19:19:01;3.90;;;3.20;;
22983;SDS011;11658;48.908;9.140;2022-10-17T19:21:30;4.10;;;3.23;;
22983;SDS011;11658;48.908;9.140;2022-10-17T19:23:58;5.00;;;3.50;;
22983;SDS011;11658;48.908;9.140;2022-10-17T19:26:28;5.97;;;4.37;;
22983;SDS011;11658;48.908;9.140;2022-10-17T19:28:55;5.83;;;3.33;;
22983;SDS011;11658;48.908;9.140;2022-10-17T19:31:22;5.30;;;3.20;;
22983;SDS011;11658;48.908;9.140;2022-10-17T19:33:49;4.37;;;3.13;;
22983;SDS011;11658;48.908;9.140;2022-10-17T19:36:16;3.60;;;3.07;;
22983;SDS011;11658;48.908;9.140;2022-10-17T19:38:47;5.07;;;2.90;;
22983;SDS011;11658;48.908;9.140;2022-10-17T19:41:13;3.63;;;2.97;;
22983;SDS011;11658;48.908;9.140;2022-10-17T19:43:40;4.47;;;2.93;;
22983;SDS011;11658;48.908;9.140;2022-10-17T19:46:09;4.47;;;2.83;;